Time;durP1;ratioP1;P1;durP2;ratioP2;P2;SDS_P1;SDS_P2;PMS_P1;PMS_P2;Temp;Humidity;BMP_temperature;BMP_pressure;BME280_temperature;BME280_humidity;BME280_pressure;Samples;Min_cycle;Max_cycle;Signal;HPM_P1;HPM_P2
2023/08/14 00:02:22;;;;;;;5.88;2.60;;;16.30;99.90;;;;;;5015927;28;20045;-83
2023/08/14 00:04:48;;;;;;;4.28;2.70;;;16.40;99.90;;;;;;5033502;28;20044;-82
2023/08/14 00:07:14;;;;;;;2.80;1.70;;;16.30;99.90;;;;;;5015854;28;20042;-85
2023/08/14 00:09:40;;;;;;;5.07;2.15;;;16.40;99.90;;;;;;5030909;28;20053;-85
2023/08/14 00:12:06;;;;;;;4.30;2.03;;;16.30;99.90;;;;;;5015705;28;20120;-83
2023/08/14 00:14:32;;;;;;;3.90;2.30;;;16.30;99.90;;;;;;5031456;28;20175;-85
2023/08/14 00:16:57;;;;;;;4.68;2.53;;;16.20;99.90;;;;;;5033527;28;20517;-85
2023/08/14 00:19:23;;;;;;;5.53;2.78;;;16.20;99.90;;;;;;5033476;28;20041;-86
2023/08/14 00:21:49;;;;;;;5.57;2.83;;;16.20;99.90;;;;;;5016223;28;20037;-86
2023/08/14 00:24:14;;;;;;;4.57;2.70;;;16.20;99.90;;;;;;5012238;28;20064;-84
2023/08/14 00:26:40;;;;;;;5.95;3.00;;;16.20;99.90;;;;;;5013344;28;20054;-83
2023/08/14 00:29:06;;;;;;;5.38;2.60;;;16.20;99.90;;;;;;5015351;28;20124;-83
2023/08/14 00:31:31;;;;;;;5.40;2.58;;;16.20;99.90;;;;;;5029557;28;20448;-83
2023/08/14 00:33:57;;;;;;;4.82;2.80;;;16.20;99.90;;;;;;5032355;28;20402;-83
2023/08/14 00:36:22;;;;;;;3.75;2.50;;;16.10;99.90;;;;;;4996127;28;20054;-83
2023/08/14 00:38:48;;;;;;;3.90;2.05;;;16.10;99.90;;;;;;5012495;28;20512;-82
2023/08/14 00:41:14;;;;;;;4.32;2.10;;;16.20;99.90;;;;;;5012345;28;20069;-82
2023/08/14 00:43:39;;;;;;;4.50;1.70;;;16.10;99.90;;;;;;5013142;28;20042;-81
2023/08/14 00:46:06;;;;;;;4.32;1.40;;;16.20;99.90;;;;;;5030751;28;20419;-81
2023/08/14 00:48:32;;;;;;;3.08;1.45;;;16.10;99.90;;;;;;5033176;28;20041;-80
2023/08/14 00:50:58;;;;;;;1.40;1.20;;;16.10;99.90;;;;;;4999072;28;20406;-81
2023/08/14 00:53:29;;;;;;;4.60;1.83;;;16.00;99.90;;;;;;5011949;28;20502;-81
2023/08/14 00:55:55;;;;;;;4.03;2.08;;;16.00;99.90;;;;;;5016056;28;20042;-80
2023/08/14 00:58:22;;;;;;;4.05;1.88;;;15.90;99.90;;;;;;5023403;28;20033;-80
2023/08/14 01:00:48;;;;;;;3.05;1.70;;;15.90;99.90;;;;;;5034398;28;20045;-80
2023/08/14 01:03:14;;;;;;;5.10;1.98;;;15.80;99.90;;;;;;5018245;28;20044;-82
2023/08/14 01:05:40;;;;;;;4.60;1.60;;;15.90;99.90;;;;;;5019092;28;20045;-83
2023/08/14 01:08:05;;;;;;;4.07;2.10;;;15.90;99.90;;;;;;5019032;28;20033;-83
2023/08/14 01:10:59;;;;;;;5.05;2.30;;;15.90;99.90;;;;;;5004497;28;20038;-83
2023/08/14 01:13:50;;;;;;;4.25;2.30;;;15.80;99.90;;;;;;5012630;28;20037;-83
2023/08/14 01:16:23;;;;;;;4.85;2.70;;;15.80;99.90;;;;;;5018910;28;20396;-85
2023/08/14 01:18:51;;;;;;;4.63;2.45;;;15.80;99.90;;;;;;5002536;28;20121;-85
2023/08/14 01:21:16;;;;;;;4.18;2.50;;;15.90;99.90;;;;;;4999440;28;20069;-83
2023/08/14 01:24:19;;;;;;;4.97;2.60;;;15.80;99.90;;;;;;4999285;28;20510;-82
2023/08/14 01:26:46;;;;;;;5.20;2.60;;;15.80;99.90;;;;;;5015349;28;20054;-82
2023/08/14 01:29:12;;;;;;;5.78;2.47;;;15.80;99.90;;;;;;5017697;28;20536;-82
2023/08/14 01:31:38;;;;;;;4.45;2.33;;;15.80;99.90;;;;;;5018604;28;20030;-82
2023/08/14 01:34:03;;;;;;;3.67;2.28;;;15.80;99.90;;;;;;5034301;28;20041;-83
2023/08/14 01:36:38;;;;;;;3.75;2.10;;;15.70;99.90;;;;;;5035240;28;20124;-82
2023/08/14 01:39:18;;;;;;;3.42;1.90;;;15.70;99.90;;;;;;5034472;28;20099;-82
2023/08/14 01:41:47;;;;;;;2.78;1.70;;;15.70;99.90;;;;;;4998723;28;20052;-83
2023/08/14 01:44:17;;;;;;;3.33;1.63;;;15.70;99.90;;;;;;5031384;28;20041;-83
2023/08/14 01:46:46;;;;;;;4.18;1.90;;;15.70;99.90;;;;;;5035106;28;20448;-83
2023/08/14 01:49:14;;;;;;;2.60;1.60;;;15.70;99.90;;;;;;5034206;28;20044;-82
2023/08/14 01:51:41;;;;;;;2.80;1.50;;;15.70;99.90;;;;;;5034914;28;20037;-82
2023/08/14 01:54:07;;;;;;;2.88;1.70;;;15.60;99.90;;;;;;5033928;28;20075;-82
2023/08/14 01:56:32;;;;;;;4.80;1.80;;;15.60;99.90;;;;;;5033877;28;20041;-84
2023/08/14 01:58:58;;;;;;;3.47;2.20;;;15.60;99.90;;;;;;5017643;28;20038;-82
2023/08/14 02:01:23;;;;;;;3.60;1.52;;;15.50;99.90;;;;;;4998727;28;20517;-81
2023/08/14 02:03:49;;;;;;;2.13;1.40;;;15.50;99.90;;;;;;4998598;28;20091;-81
2023/08/14 02:06:14;;;;;;;3.35;1.40;;;15.50;99.90;;;;;;5016976;28;20038;-81
2023/08/14 02:08:40;;;;;;;2.30;1.75;;;15.50;99.90;;;;;;5006137;28;20038;-82
2023/08/14 02:11:09;;;;;;;4.97;2.00;;;15.40;99.90;;;;;;5015399;28;20112;-84
2023/08/14 02:13:35;;;;;;;4.57;2.35;;;15.40;99.90;;;;;;5026132;28;20074;-82
2023/08/14 02:16:01;;;;;;;7.38;2.42;;;15.40;99.90;;;;;;5034524;28;20072;-81
2023/08/14 02:18:27;;;;;;;5.88;3.10;;;15.40;99.90;;;;;;5015462;28;20034;-83
2023/08/14 02:20:53;;;;;;;5.60;2.95;;;15.50;99.90;;;;;;5025528;28;20049;-81
2023/08/14 02:23:19;;;;;;;6.18;3.25;;;15.50;99.90;;;;;;5014330;28;20052;-82
2023/08/14 02:25:45;;;;;;;8.00;3.58;;;15.50;99.90;;;;;;5028707;28;20038;-82
2023/08/14 02:28:11;;;;;;;5.93;4.00;;;15.60;99.90;;;;;;5034004;28;20477;-82
2023/08/14 02:30:38;;;;;;;6.47;3.83;;;15.60;99.90;;;;;;5017813;28;20387;-83
2023/08/14 02:33:04;;;;;;;6.57;3.92;;;15.60;99.90;;;;;;5017605;28;20085;-82
2023/08/14 02:35:29;;;;;;;6.18;4.00;;;15.60;99.90;;;;;;5019543;28;20471;-82
2023/08/14 02:37:55;;;;;;;6.00;3.60;;;15.60;99.90;;;;;;5015333;28;20073;-83
2023/08/14 02:40:20;;;;;;;6.32;4.00;;;15.70;99.90;;;;;;4998010;28;20045;-83
2023/08/14 02:42:46;;;;;;;6.90;4.25;;;15.60;99.90;;;;;;5015633;28;20034;-82
2023/08/14 02:45:12;;;;;;;8.27;5.13;;;15.60;99.90;;;;;;5033817;28;20491;-82
2023/08/14 02:47:38;;;;;;;6.95;4.60;;;15.70;99.90;;;;;;5017272;28;20044;-81
2023/08/14 02:50:04;;;;;;;7.72;4.75;;;15.60;99.90;;;;;;5031636;28;20516;-82
2023/08/14 02:52:30;;;;;;;7.97;5.03;;;15.70;99.90;;;;;;5032252;28;20034;-82
2023/08/14 02:54:55;;;;;;;7.45;4.70;;;15.60;99.90;;;;;;5033550;28;20044;-83
2023/08/14 02:57:21;;;;;;;6.97;4.57;;;15.60;99.90;;;;;;5033653;28;20508;-82
2023/08/14 02:59:47;;;;;;;7.03;4.97;;;15.50;99.90;;;;;;5032914;28;20041;-82
2023/08/14 03:02:13;;;;;;;7.57;4.97;;;15.50;99.90;;;;;;5033555;28;20413;-82
2023/08/14 03:04:39;;;;;;;7.22;4.43;;;15.40;99.90;;;;;;5016251;28;20045;-81
2023/08/14 03:07:04;;;;;;;7.13;4.47;;;15.40;99.90;;;;;;5016821;28;20045;-80
2023/08/14 03:09:30;;;;;;;7.55;4.95;;;15.40;99.90;;;;;;5033545;28;20037;-80
2023/08/14 03:11:55;;;;;;;9.23;4.40;;;15.30;99.90;;;;;;5032664;28;20041;-81
2023/08/14 03:14:21;;;;;;;8.50;4.72;;;15.30;99.90;;;;;;5033500;28;20041;-82
2023/08/14 03:16:46;;;;;;;7.15;4.45;;;15.30;99.90;;;;;;5016516;28;20052;-81
2023/08/14 03:19:12;;;;;;;7.45;4.25;;;15.30;99.90;;;;;;5028997;28;20042;-82
2023/08/14 03:21:38;;;;;;;5.45;2.20;;;15.30;99.90;;;;;;5022341;28;20486;-81
2023/08/14 03:24:03;;;;;;;2.05;1.67;;;15.30;99.90;;;;;;5014365;28;20133;-81
2023/08/14 03:26:29;;;;;;;2.42;1.85;;;15.30;99.90;;;;;;4996765;28;20054;-81
2023/08/14 03:28:55;;;;;;;4.10;1.77;;;15.30;99.90;;;;;;5031430;28;20046;-81
2023/08/14 03:31:20;;;;;;;3.03;1.88;;;15.30;99.90;;;;;;5028844;28;20394;-81
2023/08/14 03:33:46;;;;;;;4.03;2.00;;;15.20;99.90;;;;;;5029117;28;20119;-81
2023/08/14 03:36:12;;;;;;;2.58;1.60;;;15.10;99.90;;;;;;5029746;28;20482;-82
2023/08/14 03:38:37;;;;;;;4.45;2.17;;;15.10;99.90;;;;;;4996831;28;20042;-81
2023/08/14 03:41:04;;;;;;;3.25;1.73;;;15.10;99.90;;;;;;5013257;28;20133;-80
2023/08/14 03:43:30;;;;;;;4.68;2.40;;;15.00;99.90;;;;;;5013065;28;20052;-80
2023/08/14 03:45:55;;;;;;;3.80;2.08;;;14.90;99.90;;;;;;5029832;28;20037;-81
2023/08/14 03:48:21;;;;;;;4.85;2.60;;;14.90;99.90;;;;;;5031186;28;20496;-81
2023/08/14 03:50:47;;;;;;;8.02;3.28;;;14.90;99.90;;;;;;5032540;28;20405;-80
2023/08/14 03:53:12;;;;;;;5.78;3.00;;;14.80;99.90;;;;;;5027882;28;20045;-80
2023/08/14 03:55:38;;;;;;;5.95;3.28;;;14.80;99.90;;;;;;5012604;28;20478;-81
2023/08/14 03:58:04;;;;;;;5.93;3.38;;;14.70;99.90;;;;;;4996334;28;20042;-81
2023/08/14 04:00:29;;;;;;;5.63;3.15;;;14.80;99.90;;;;;;5010108;28;20080;-80
2023/08/14 04:02:55;;;;;;;6.20;3.42;;;14.80;99.90;;;;;;5032424;28;20487;-80
2023/08/14 04:05:21;;;;;;;6.80;3.42;;;14.70;99.90;;;;;;5031706;28;20052;-80
2023/08/14 04:07:47;;;;;;;6.90;4.10;;;14.70;99.90;;;;;;5015819;28;20052;-80
2023/08/14 04:10:12;;;;;;;6.20;3.65;;;14.80;99.90;;;;;;5018799;28;20045;-80
2023/08/14 04:12:38;;;;;;;6.68;3.70;;;14.80;99.90;;;;;;5012549;28;20077;-81
2023/08/14 04:15:15;;;;;;;7.25;3.72;;;14.80;99.90;;;;;;5006169;28;20041;-81
2023/08/14 04:17:40;;;;;;;7.32;4.22;;;14.70;99.90;;;;;;5033309;28;20414;-80
2023/08/14 04:20:07;;;;;;;6.53;4.05;;;14.80;99.90;;;;;;5025388;28;20034;-80
2023/08/14 04:22:32;;;;;;;6.20;3.70;;;14.80;99.90;;;;;;5014998;28;20085;-80
2023/08/14 04:24:58;;;;;;;6.35;3.80;;;14.90;99.90;;;;;;5015459;28;20465;-81
2023/08/14 04:27:23;;;;;;;5.88;2.80;;;14.80;99.90;;;;;;5030195;28;20151;-80
2023/08/14 04:29:49;;;;;;;4.38;2.50;;;14.80;99.90;;;;;;5014391;28;20073;-80
2023/08/14 04:32:15;;;;;;;3.90;2.53;;;14.80;99.90;;;;;;5033217;28;20159;-80
2023/08/14 04:34:40;;;;;;;6.18;3.60;;;14.70;99.90;;;;;;5031176;28;20041;-80
2023/08/14 04:37:06;;;;;;;6.47;4.00;;;14.80;99.90;;;;;;5032126;28;20046;-80
2023/08/14 04:39:31;;;;;;;6.93;4.22;;;14.70;99.90;;;;;;5032045;28;20116;-80
2023/08/14 04:41:57;;;;;;;5.05;2.80;;;14.80;99.90;;;;;;5006663;28;20042;-80
2023/08/14 04:44:22;;;;;;;5.65;2.90;;;14.80;99.90;;;;;;5032422;28;20053;-80
2023/08/14 04:46:50;;;;;;;8.45;4.28;;;14.80;99.90;;;;;;5015283;28;20504;-80
2023/08/14 04:49:16;;;;;;;8.23;5.38;;;14.80;99.90;;;;;;5024087;28;20038;-80
2023/08/14 04:51:41;;;;;;;11.55;6.35;;;14.90;99.90;;;;;;5014771;28;20037;-80
2023/08/14 04:54:07;;;;;;;10.00;5.93;;;15.00;99.90;;;;;;5015582;28;20042;-80
2023/08/14 04:56:32;;;;;;;9.57;5.68;;;15.00;99.90;;;;;;5031661;28;20533;-80
2023/08/14 04:58:58;;;;;;;7.90;5.72;;;15.00;99.90;;;;;;5013788;28;20042;-81
2023/08/14 05:01:24;;;;;;;10.23;5.95;;;15.10;99.90;;;;;;5025047;28;20048;-80
2023/08/14 05:03:49;;;;;;;10.57;5.97;;;15.10;99.90;;;;;;5015073;28;20033;-80
2023/08/14 05:06:15;;;;;;;8.15;5.53;;;15.20;99.90;;;;;;5031844;28;20037;-80
2023/08/14 05:08:40;;;;;;;9.23;6.30;;;15.20;99.90;;;;;;5005310;28;20029;-80
2023/08/14 05:11:06;;;;;;;9.35;5.57;;;15.20;99.90;;;;;;4995520;28;20076;-80
2023/08/14 05:13:32;;;;;;;8.75;6.03;;;15.20;99.90;;;;;;5011796;28;20038;-80
2023/08/14 05:15:57;;;;;;;10.77;6.95;;;15.20;99.90;;;;;;4996285;28;20042;-80
2023/08/14 05:18:23;;;;;;;9.07;6.55;;;15.20;99.90;;;;;;5026077;28;20508;-80
2023/08/14 05:20:50;;;;;;;12.27;7.38;;;15.30;99.90;;;;;;5011853;28;20050;-80
2023/08/14 05:23:16;;;;;;;14.48;8.57;;;15.20;99.90;;;;;;4999646;28;20091;-80
2023/08/14 05:25:42;;;;;;;10.85;7.80;;;15.30;99.90;;;;;;5031684;28;20038;-80
2023/08/14 05:28:08;;;;;;;12.40;7.65;;;15.30;99.90;;;;;;5030534;28;20073;-80
2023/08/14 05:30:34;;;;;;;12.30;7.75;;;15.30;99.90;;;;;;5025908;28;20045;-80
2023/08/14 05:33:00;;;;;;;11.63;7.40;;;15.30;99.90;;;;;;5001995;28;20443;-80
2023/08/14 05:35:25;;;;;;;13.32;7.65;;;15.40;99.90;;;;;;5007735;28;20037;-81
2023/08/14 05:37:58;;;;;;;11.48;8.18;;;15.40;99.90;;;;;;5022027;28;20113;-81
2023/08/14 05:40:25;;;;;;;11.80;8.10;;;15.50;99.90;;;;;;5002169;28;20040;-82
2023/08/14 05:43:06;;;;;;;12.38;7.93;;;15.50;99.90;;;;;;5029736;28;20121;-81
2023/08/14 05:45:32;;;;;;;12.20;8.45;;;15.50;99.90;;;;;;5015994;28;20042;-81
2023/08/14 05:47:58;;;;;;;12.90;7.65;;;15.50;99.90;;;;;;5031915;28;20127;-81
2023/08/14 05:50:25;;;;;;;10.98;7.45;;;15.60;99.90;;;;;;5032683;28;20060;-81
2023/08/14 05:52:51;;;;;;;11.45;8.30;;;15.70;99.90;;;;;;5026669;28;20038;-81
2023/08/14 05:55:17;;;;;;;11.32;8.05;;;15.70;99.90;;;;;;5018631;28;20041;-82
2023/08/14 05:57:42;;;;;;;10.52;7.45;;;15.80;99.90;;;;;;5014687;28;20045;-81
2023/08/14 06:00:11;;;;;;;11.13;8.13;;;15.90;99.90;;;;;;5010160;28;21896;-79
2023/08/14 06:02:37;;;;;;;12.85;7.30;;;15.90;99.90;;;;;;5023560;28;20048;-81
2023/08/14 06:05:04;;;;;;;13.57;8.35;;;16.00;99.90;;;;;;5024409;28;20049;-80
2023/08/14 06:07:29;;;;;;;10.80;7.90;;;16.00;99.90;;;;;;5013601;28;20036;-81
2023/08/14 06:09:55;;;;;;;12.23;7.85;;;16.00;99.90;;;;;;5029593;28;20037;-84
2023/08/14 06:12:20;;;;;;;14.27;8.48;;;16.00;99.90;;;;;;5015360;28;20088;-82
2023/08/14 06:14:46;;;;;;;13.07;8.82;;;16.10;99.90;;;;;;5031870;28;20037;-82
2023/08/14 06:17:11;;;;;;;14.05;8.00;;;16.20;99.90;;;;;;5030879;28;20076;-82
2023/08/14 06:19:37;;;;;;;12.25;9.13;;;16.20;99.90;;;;;;5032290;28;20482;-82
2023/08/14 06:22:04;;;;;;;10.43;7.57;;;16.20;99.90;;;;;;4997586;28;20079;-82
2023/08/14 06:24:30;;;;;;;12.05;8.40;;;16.30;99.90;;;;;;5020213;28;20075;-81
2023/08/14 06:26:56;;;;;;;13.27;8.63;;;16.30;99.90;;;;;;5009667;28;20046;-81
2023/08/14 06:29:21;;;;;;;12.60;8.77;;;16.40;99.90;;;;;;5025293;28;20080;-81
2023/08/14 06:31:47;;;;;;;11.57;7.95;;;16.50;99.90;;;;;;5031528;28;20069;-81
2023/08/14 06:34:12;;;;;;;13.20;8.60;;;16.40;99.90;;;;;;5030552;28;20048;-81
2023/08/14 06:36:38;;;;;;;13.10;8.38;;;16.50;99.90;;;;;;5023700;28;20458;-81
2023/08/14 06:39:04;;;;;;;11.90;7.45;;;16.60;99.90;;;;;;5034484;28;20132;-81
2023/08/14 06:41:29;;;;;;;12.02;8.20;;;16.60;99.90;;;;;;5030391;28;20041;-81
2023/08/14 06:43:55;;;;;;;10.77;7.63;;;16.70;99.90;;;;;;5000912;28;20045;-81
2023/08/14 06:46:20;;;;;;;13.15;8.00;;;16.80;99.90;;;;;;5023230;28;20033;-81
2023/08/14 06:48:47;;;;;;;10.07;7.53;;;16.90;99.90;;;;;;5033531;28;20045;-81
2023/08/14 06:51:12;;;;;;;10.65;6.93;;;17.00;99.90;;;;;;5007513;28;20048;-81
2023/08/14 06:53:38;;;;;;;12.00;7.63;;;16.90;99.90;;;;;;5032102;28;20493;-81
2023/08/14 06:56:04;;;;;;;10.48;7.30;;;17.00;99.90;;;;;;5032952;28;20501;-81
2023/08/14 06:58:29;;;;;;;11.93;7.70;;;16.90;99.90;;;;;;5032566;28;20188;-81
2023/08/14 07:00:55;;;;;;;11.98;7.90;;;17.00;99.90;;;;;;5015719;28;20037;-81
2023/08/14 07:03:21;;;;;;;13.00;6.85;;;16.90;99.90;;;;;;5022916;28;20125;-81
2023/08/14 07:05:47;;;;;;;12.13;8.15;;;16.90;99.90;;;;;;5027338;28;20113;-81
2023/08/14 07:08:12;;;;;;;11.27;7.57;;;17.00;99.90;;;;;;5011824;28;20049;-81
2023/08/14 07:10:38;;;;;;;12.35;8.10;;;16.90;99.90;;;;;;5033595;28;20048;-81
2023/08/14 07:13:04;;;;;;;11.50;7.47;;;17.10;99.90;;;;;;5009153;28;20097;-81
2023/08/14 07:15:30;;;;;;;12.60;7.55;;;17.10;99.90;;;;;;5016052;28;20037;-81
2023/08/14 07:17:55;;;;;;;10.45;7.22;;;17.20;99.90;;;;;;4999018;28;20121;-81
2023/08/14 07:20:21;;;;;;;12.63;6.97;;;17.20;99.90;;;;;;5011140;28;20068;-81
2023/08/14 07:22:47;;;;;;;10.88;7.03;;;17.30;99.90;;;;;;5011853;28;20484;-81
2023/08/14 07:25:13;;;;;;;10.50;7.45;;;17.30;99.90;;;;;;5028712;28;20084;-82
2023/08/14 07:27:38;;;;;;;13.68;6.80;;;17.40;99.90;;;;;;5029632;28;20509;-82
2023/08/14 07:30:05;;;;;;;12.30;6.15;;;17.50;99.90;;;;;;5015676;28;20091;-81
2023/08/14 07:32:31;;;;;;;14.27;6.55;;;17.50;99.90;;;;;;5024962;28;20033;-82
2023/08/14 07:34:57;;;;;;;11.35;6.18;;;17.60;99.90;;;;;;5007366;28;20033;-75
2023/08/14 07:37:23;;;;;;;11.43;7.13;;;17.70;99.90;;;;;;5020438;28;20049;-81
2023/08/14 07:39:48;;;;;;;10.65;5.97;;;17.90;99.90;;;;;;5031801;28;20419;-80
2023/08/14 07:42:14;;;;;;;12.35;6.47;;;18.10;99.90;;;;;;5026960;28;20116;-83
2023/08/14 07:44:40;;;;;;;12.52;6.22;;;18.20;99.90;;;;;;5025747;28;20038;-82
2023/08/14 07:47:05;;;;;;;11.48;5.70;;;18.30;99.90;;;;;;5015130;28;20113;-82
2023/08/14 07:49:33;;;;;;;11.18;6.13;;;18.50;99.90;;;;;;5015689;28;20563;-82
2023/08/14 07:51:59;;;;;;;10.40;5.50;;;18.60;99.90;;;;;;5013012;28;20052;-82
2023/08/14 07:54:25;;;;;;;9.50;5.10;;;18.60;99.90;;;;;;5010580;28;20042;-81
2023/08/14 07:56:52;;;;;;;9.48;5.47;;;18.70;99.90;;;;;;4995946;28;20547;-82
2023/08/14 07:59:19;;;;;;;9.55;5.32;;;18.70;99.90;;;;;;5012977;28;20042;-81
2023/08/14 08:01:44;;;;;;;11.98;4.72;;;18.70;99.90;;;;;;5008680;28;20029;-81
2023/08/14 08:04:10;;;;;;;8.45;4.53;;;18.70;99.90;;;;;;5005943;28;20033;-81
2023/08/14 08:06:36;;;;;;;9.13;4.57;;;18.70;99.90;;;;;;5010902;28;20485;-81
2023/08/14 08:09:02;;;;;;;8.90;4.40;;;18.80;99.90;;;;;;5002298;28;20037;-81
2023/08/14 08:11:28;;;;;;;8.85;4.05;;;18.90;99.90;;;;;;5016811;28;20438;-82
2023/08/14 08:13:54;;;;;;;11.90;4.18;;;19.00;99.90;;;;;;5012669;28;20152;-81
2023/08/14 08:16:19;;;;;;;9.88;4.45;;;19.00;99.90;;;;;;5004286;28;20042;-81
2023/08/14 08:18:45;;;;;;;12.75;4.63;;;19.00;99.90;;;;;;5021876;28;20044;-81
2023/08/14 08:21:10;;;;;;;8.55;4.20;;;19.10;99.90;;;;;;5022595;28;20092;-81
2023/08/14 08:23:36;;;;;;;8.45;3.78;;;19.10;99.90;;;;;;5013606;28;20049;-82
2023/08/14 08:26:02;;;;;;;8.40;3.70;;;19.10;99.90;;;;;;5019728;28;20034;-81
2023/08/14 08:28:27;;;;;;;10.82;3.80;;;19.20;99.90;;;;;;5032016;28;20037;-81
2023/08/14 08:30:53;;;;;;;7.18;3.53;;;19.20;99.90;;;;;;5029836;28;20489;-81
2023/08/14 08:33:19;;;;;;;8.32;3.53;;;19.30;99.90;;;;;;5008151;28;20048;-82
2023/08/14 08:35:45;;;;;;;8.98;3.80;;;19.50;99.90;;;;;;5030570;28;20480;-80
2023/08/14 08:38:10;;;;;;;7.55;3.88;;;19.60;99.90;;;;;;5026791;28;20033;-81
2023/08/14 08:40:37;;;;;;;9.38;3.55;;;19.70;99.90;;;;;;5016408;28;20033;-80
2023/08/14 08:43:04;;;;;;;9.93;3.78;;;19.80;99.90;;;;;;4996569;28;20513;-81
2023/08/14 08:45:34;;;;;;;6.18;3.28;;;19.90;99.90;;;;;;4998554;28;20472;-81
2023/08/14 08:48:02;;;;;;;7.07;3.42;;;20.00;99.90;;;;;;5033245;28;20064;-81
2023/08/14 08:50:31;;;;;;;10.27;4.07;;;20.20;99.90;;;;;;4997587;28;20034;-81
2023/08/14 08:52:57;;;;;;;9.93;3.83;;;20.30;99.90;;;;;;5027417;28;20033;-81
2023/08/14 08:55:23;;;;;;;7.97;3.33;;;20.40;99.90;;;;;;5032924;28;20049;-82
2023/08/14 08:57:51;;;;;;;8.88;3.78;;;20.60;99.90;;;;;;5022520;28;20113;-81
2023/08/14 09:00:18;;;;;;;7.63;2.80;;;20.70;99.90;;;;;;5004765;28;20045;-82
2023/08/14 09:02:45;;;;;;;6.57;2.55;;;20.90;99.90;;;;;;5028899;28;20041;-81
2023/08/14 09:05:11;;;;;;;8.80;3.17;;;20.90;99.90;;;;;;5028428;28;20037;-81
2023/08/14 09:07:36;;;;;;;7.20;2.70;;;20.90;99.90;;;;;;5026602;28;20486;-81
2023/08/14 09:10:02;;;;;;;7.15;2.50;;;20.80;99.90;;;;;;5019852;28;20034;-81
2023/08/14 09:12:30;;;;;;;7.65;2.75;;;20.90;99.90;;;;;;5028554;28;20029;-81
2023/08/14 09:15:22;;;;;;;6.10;2.58;;;20.90;99.90;;;;;;5021177;28;20038;-82
2023/08/14 09:17:49;;;;;;;5.93;2.20;;;21.00;99.90;;;;;;5005968;28;20061;-82
2023/08/14 09:20:15;;;;;;;6.97;2.63;;;21.10;99.90;;;;;;5034075;28;21634;-82
2023/08/14 09:22:40;;;;;;;7.45;2.50;;;21.20;99.90;;;;;;5034467;28;20080;-81
2023/08/14 09:25:06;;;;;;;6.78;2.20;;;21.30;99.90;;;;;;5017354;28;20084;-82
2023/08/14 09:27:32;;;;;;;6.30;2.20;;;21.30;99.90;;;;;;5015206;28;20125;-83
2023/08/14 09:29:58;;;;;;;6.22;2.20;;;21.30;99.90;;;;;;5028739;28;20095;-82
2023/08/14 09:32:25;;;;;;;7.25;2.25;;;21.40;99.90;;;;;;5033882;28;20045;-82
2023/08/14 09:34:59;;;;;;;7.30;2.40;;;21.50;99.90;;;;;;5033445;28;20490;-83
2023/08/14 09:37:25;;;;;;;6.72;2.80;;;21.40;99.90;;;;;;5033907;28;20037;-84
2023/08/14 09:40:13;;;;;;;7.25;2.72;;;21.60;99.90;;;;;;5032018;28;20053;-83
2023/08/14 09:42:39;;;;;;;8.75;3.55;;;21.70;99.90;;;;;;5007440;28;20116;-84
2023/08/14 09:45:06;;;;;;;10.82;3.65;;;21.80;99.90;;;;;;5029425;28;20496;-83
2023/08/14 09:47:32;;;;;;;9.98;3.65;;;21.70;99.90;;;;;;5019385;28;20030;-84
2023/08/14 09:49:58;;;;;;;8.77;3.45;;;21.80;99.90;;;;;;5029279;28;20386;-84
2023/08/14 09:52:24;;;;;;;9.52;3.83;;;21.80;99.90;;;;;;5010593;28;20044;-84
2023/08/14 09:54:50;;;;;;;7.40;3.42;;;21.80;99.90;;;;;;5016435;28;20033;-85
2023/08/14 09:57:23;;;;;;;9.05;3.22;;;21.90;99.90;;;;;;5052012;28;20033;-84
2023/08/14 09:59:49;;;;;;;7.50;3.20;;;22.10;99.90;;;;;;5034035;28;20394;-84
2023/08/14 10:02:16;;;;;;;10.15;3.08;;;22.20;99.90;;;;;;5034089;28;20044;-85
2023/08/14 10:04:46;;;;;;;6.05;2.25;;;22.20;99.90;;;;;;5016822;28;20087;-86
2023/08/14 10:07:13;;;;;;;9.23;3.00;;;22.20;99.90;;;;;;5011697;28;20064;-86
2023/08/14 10:09:43;;;;;;;7.47;3.17;;;22.10;99.90;;;;;;5016519;28;20045;-84
2023/08/14 10:12:12;;;;;;;6.35;2.90;;;22.00;99.90;;;;;;5029033;28;20038;-86
2023/08/14 10:14:41;;;;;;;7.47;2.75;;;21.90;99.90;;;;;;5031666;28;20489;-84
2023/08/14 10:17:18;;;;;;;6.53;2.72;;;21.80;99.90;;;;;;5029906;28;20449;-85
2023/08/14 10:19:44;;;;;;;5.60;2.30;;;21.90;99.90;;;;;;5009155;28;20459;-84
2023/08/14 10:22:10;;;;;;;6.55;2.38;;;22.00;99.90;;;;;;5028299;28;20493;-85
2023/08/14 10:24:37;;;;;;;5.57;2.03;;;22.20;99.90;;;;;;5023905;28;20044;-86
2023/08/14 10:27:04;;;;;;;7.93;2.53;;;22.30;99.90;;;;;;5028813;28;20049;-85
2023/08/14 10:29:31;;;;;;;5.53;2.10;;;22.30;99.90;;;;;;5009743;28;20038;-84
2023/08/14 10:31:58;;;;;;;9.10;2.30;;;22.40;99.90;;;;;;5023328;28;20520;-84
2023/08/14 10:34:25;;;;;;;7.30;2.67;;;22.40;99.90;;;;;;5015833;28;20635;-85
2023/08/14 10:36:51;;;;;;;7.47;2.60;;;22.30;99.90;;;;;;5013791;28;20501;-85
2023/08/14 10:39:18;;;;;;;6.25;2.00;;;22.30;99.90;;;;;;5022192;28;20501;-85
2023/08/14 10:41:44;;;;;;;8.07;2.45;;;22.20;99.90;;;;;;5033001;28;20044;-85
2023/08/14 10:44:11;;;;;;;6.88;2.30;;;22.20;99.90;;;;;;5016007;28;20417;-85
2023/08/14 10:46:41;;;;;;;6.82;2.10;;;22.10;99.90;;;;;;5025254;28;20062;-85
2023/08/14 10:49:07;;;;;;;3.97;1.90;;;22.00;99.90;;;;;;5018278;28;20556;-85
2023/08/14 10:51:33;;;;;;;9.82;3.42;;;22.10;99.90;;;;;;5033533;28;20120;-85
2023/08/14 10:54:14;;;;;;;10.00;2.28;;;22.10;99.90;;;;;;5023713;28;20486;-85
2023/08/14 10:56:42;;;;;;;8.18;2.22;;;22.20;99.90;;;;;;5009722;28;20063;-86
2023/08/14 10:59:19;;;;;;;6.57;2.25;;;22.20;99.90;;;;;;4998462;28;20044;-86
2023/08/14 11:01:50;;;;;;;7.40;2.17;;;22.20;99.90;;;;;;5016100;28;20499;-86
2023/08/14 11:04:16;;;;;;;7.88;2.30;;;22.30;99.90;;;;;;5032201;28;20521;-86
2023/08/14 11:07:11;;;;;;;6.45;2.20;;;22.20;99.90;;;;;;5014167;28;20037;-85
2023/08/14 11:09:38;;;;;;;8.10;2.22;;;22.20;99.90;;;;;;5013796;28;20106;-86
2023/08/14 11:12:08;;;;;;;5.88;2.00;;;22.30;99.90;;;;;;5014383;28;20117;-86
2023/08/14 11:14:36;;;;;;;7.38;2.17;;;22.30;99.90;;;;;;5017065;28;20037;-86
2023/08/14 11:17:03;;;;;;;6.05;2.30;;;22.30;99.90;;;;;;4996924;28;20041;-85
2023/08/14 11:19:29;;;;;;;7.63;2.13;;;22.40;99.90;;;;;;5028791;28;20075;-85
2023/08/14 11:21:54;;;;;;;6.63;2.42;;;22.70;99.90;;;;;;5032972;28;20085;-87
2023/08/14 11:24:20;;;;;;;5.65;2.10;;;22.70;99.90;;;;;;5039623;28;20041;-86
2023/08/14 11:26:46;;;;;;;6.30;1.67;;;22.80;99.90;;;;;;5044122;28;20057;-86
2023/08/14 11:29:11;;;;;;;5.88;2.15;;;22.90;99.90;;;;;;5015504;28;20092;-86
2023/08/14 11:31:37;;;;;;;6.15;2.00;;;23.00;99.90;;;;;;5031248;28;20405;-84
2023/08/14 11:34:03;;;;;;;5.95;1.80;;;23.00;99.90;;;;;;5031623;28;20146;-86
2023/08/14 11:36:28;;;;;;;7.93;1.95;;;23.10;99.90;;;;;;5003283;28;20041;-86
2023/08/14 11:38:54;;;;;;;6.78;2.00;;;23.10;99.90;;;;;;5000732;28;20187;-85
2023/08/14 11:41:19;;;;;;;5.93;1.92;;;23.20;99.90;;;;;;5030905;28;20080;-86
2023/08/14 11:43:45;;;;;;;9.45;2.42;;;23.20;99.90;;;;;;5010683;28;20417;-87
2023/08/14 11:46:12;;;;;;;8.60;2.17;;;23.20;99.90;;;;;;5020947;28;20049;-85
2023/08/14 11:48:40;;;;;;;5.07;1.88;;;23.30;99.90;;;;;;5024590;28;20042;-87
2023/08/14 11:51:06;;;;;;;6.35;2.00;;;23.30;99.90;;;;;;5016469;28;20398;-86
2023/08/14 11:53:32;;;;;;;8.43;2.20;;;23.30;99.90;;;;;;5015101;28;20040;-87
2023/08/14 11:55:58;;;;;;;5.95;2.17;;;23.40;99.90;;;;;;5032339;28;20394;-85
2023/08/14 11:58:24;;;;;;;5.03;1.60;;;23.40;99.90;;;;;;5032673;28;20041;-87
2023/08/14 12:00:50;;;;;;;6.82;1.88;;;23.50;99.90;;;;;;5012308;28;20128;-86
2023/08/14 12:03:17;;;;;;;8.45;2.00;;;23.50;99.90;;;;;;5030701;28;20039;-87
2023/08/14 12:05:47;;;;;;;5.05;1.70;;;23.40;99.90;;;;;;5014949;28;20124;-87
2023/08/14 12:08:13;;;;;;;5.75;1.92;;;23.50;99.90;;;;;;5014951;28;20079;-86
2023/08/14 12:10:39;;;;;;;5.32;1.85;;;23.50;99.90;;;;;;5025954;28;20057;-86
2023/08/14 12:13:05;;;;;;;6.60;2.33;;;23.50;99.90;;;;;;5031524;28;20112;-87
2023/08/14 12:15:31;;;;;;;6.90;1.70;;;23.50;99.90;;;;;;5030237;28;20112;-88
2023/08/14 12:17:57;;;;;;;4.20;1.52;;;23.60;99.90;;;;;;5022256;28;20052;-78
2023/08/14 12:20:23;;;;;;;5.60;1.98;;;23.60;99.90;;;;;;5029618;28;20069;-77
2023/08/14 12:22:49;;;;;;;7.38;2.30;;;23.40;99.90;;;;;;5027514;28;20038;-75
2023/08/14 12:25:21;;;;;;;6.15;1.77;;;23.40;99.90;;;;;;4996078;28;20084;-77
2023/08/14 12:27:47;;;;;;;4.90;1.80;;;23.30;99.90;;;;;;5024528;28;20053;-76
2023/08/14 12:30:13;;;;;;;7.28;2.15;;;23.20;99.90;;;;;;5032214;28;20402;-76
2023/08/14 12:32:46;;;;;;;8.77;2.25;;;23.20;99.90;;;;;;5014147;28;20044;-77
2023/08/14 12:35:12;;;;;;;7.65;1.98;;;23.10;99.90;;;;;;5010924;28;20544;-78
2023/08/14 12:37:37;;;;;;;4.38;1.60;;;23.00;99.90;;;;;;5011709;28;20042;-87
2023/08/14 12:40:09;;;;;;;6.45;1.90;;;23.00;99.90;;;;;;4995046;28;20046;-87
2023/08/14 12:42:35;;;;;;;;;;;22.90;99.90;;;;;;5014975;28;20038;-87
2023/08/14 12:45:02;;;;;;;5.95;1.88;;;22.90;99.90;;;;;;5020174;28;19922;-87